Coatsburg, Illinois
Current Conditions -  °F | °C
As of 8:54 AM on Friday 31 Oct 2014 (Local Time) from KUIN Reporting Station
Clear Clear  
Wind Chill: 24°   Ceiling: Unl
Heat Index: 34°   Visibility: 10mi
Dew Point: 20°   Wind: 16mph
Humidity: 56%   Direction: 350°N
Pressure: 30.32"   Gusts: NA
Location:  40.03°N, 91.16°W
Report Text: KUIN 311354Z AUTO 35014KT 10SM CLR 01/M07 A3032 RMK AO2 SLP273 T00111067
Loading
Personal Weather Stations






























Interactive Weather Map
Tropical Storm Tracking
New forecast layout! Learn more

10-Day Weather Forecast

Advertisements
Track Severe Weather on mobile